Bald Head Island, North Carolina
Current Conditions -  °F | °C
As of 12:35 AM on Friday 28 Nov 2014 (Local Time) from KSUT Reporting Station
Clear Clear  
Wind Chill: 37°   Ceiling: Unl
Heat Index: 37°   Visibility: 10mi
Dew Point: 34°   Wind: 3mph
Humidity: 89%   Direction: 330°NNW
Pressure: 30.25"   Gusts: NA
Location:  34.0734°N, 78.0547°W
Report Text: KSUT 280535Z AUTO 33003KT 10SM CLR 03/01 A3025 RMK AO2 T00300013
Loading
Personal Weather Stations






























Interactive Weather Map New forecast layout! Learn more

10-Day Weather Forecast

Advertisements
Track Severe Weather on mobile